createdAt,value
2022-12-31T00:01:42.789Z,97808.88
2022-12-31T00:04:09.140Z,97789.03
2022-12-31T00:06:36.271Z,97806.19
2022-12-31T00:09:06.108Z,97811.56
2022-12-31T00:11:34.788Z,97807.75
2022-12-31T00:14:01.337Z,97821.06
2022-12-31T00:16:33.641Z,97815.34
2022-12-31T00:19:00.761Z,97807.81
2022-12-31T00:21:28.804Z,97824.00
2022-12-31T00:23:55.799Z,97842.84
2022-12-31T00:26:25.294Z,97848.63
2022-12-31T00:28:53.877Z,97842.47
2022-12-31T00:31:28.654Z,97840.25
2022-12-31T00:33:55.759Z,97846.78
2022-12-31T00:36:32.978Z,97853.66
2022-12-31T00:39:00.954Z,97857.72
2022-12-31T00:41:28.065Z,97836.19
2022-12-31T00:43:55.207Z,97835.44
2022-12-31T00:46:22.138Z,97854.31
2022-12-31T00:48:49.112Z,97854.81
2022-12-31T00:51:17.688Z,97852.59
2022-12-31T00:53:44.723Z,97859.13
2022-12-31T00:56:17.525Z,97864.44
2022-12-31T00:58:44.887Z,97869.56
2022-12-31T01:01:13.395Z,97876.44
2022-12-31T01:03:39.858Z,97878.22
2022-12-31T01:06:06.932Z,97871.78
2022-12-31T01:08:33.754Z,97873.13
2022-12-31T01:11:19.440Z,97875.66
2022-12-31T01:13:47.159Z,97880.94
2022-12-31T01:16:14.726Z,97897.19
2022-12-31T01:18:41.508Z,97896.22
2022-12-31T01:21:11.498Z,97890.53
2022-12-31T01:23:37.887Z,97901.03
2022-12-31T01:26:06.768Z,97889.03
2022-12-31T01:28:33.928Z,97899.50
2022-12-31T01:31:04.312Z,97893.38
2022-12-31T01:33:30.737Z,97894.09
2022-12-31T01:36:02.515Z,97908.06
2022-12-31T01:38:28.975Z,97904.56
2022-12-31T01:40:55.316Z,97911.09
2022-12-31T01:43:22.074Z,97910.94
2022-12-31T01:45:53.087Z,97921.84
2022-12-31T01:48:26.850Z,97929.50
2022-12-31T01:50:54.344Z,97934.66
2022-12-31T01:53:21.010Z,97934.34
2022-12-31T01:55:52.542Z,97929.59
2022-12-31T01:58:25.154Z,97938.09
2022-12-31T02:00:53.186Z,97942.84
2022-12-31T02:03:21.458Z,97937.78
2022-12-31T02:05:56.964Z,97936.81
2022-12-31T02:08:23.604Z,97934.75
2022-12-31T02:10:49.964Z,97942.91
2022-12-31T02:13:16.466Z,97937.84
2022-12-31T02:16:00.111Z,97928.06
2022-12-31T02:18:42.192Z,97937.69
2022-12-31T02:21:33.057Z,97942.91
2022-12-31T02:24:23.590Z,97942.69
2022-12-31T02:26:57.481Z,97944.47
2022-12-31T02:30:01.209Z,97942.75
2022-12-31T02:33:02.893Z,97938.09
2022-12-31T02:35:46.394Z,97944.66
2022-12-31T02:38:19.276Z,97937.78
2022-12-31T02:40:45.769Z,97941.13
2022-12-31T02:43:12.156Z,97931.06
2022-12-31T02:45:42.374Z,97929.34
2022-12-31T02:48:23.765Z,97938.94
2022-12-31T02:51:18.232Z,97935.75
2022-12-31T02:54:13.094Z,97925.00
2022-12-31T02:56:44.295Z,97921.41
2022-12-31T03:00:08.316Z,97921.41
2022-12-31T03:02:36.865Z,97902.25
2022-12-31T03:05:03.830Z,97888.09
2022-12-31T03:07:32.790Z,97884.31
2022-12-31T03:10:00.875Z,97885.28
2022-12-31T03:12:48.580Z,97881.03
2022-12-31T03:15:21.779Z,97918.53
2022-12-31T03:17:50.555Z,97909.88
2022-12-31T03:20:36.722Z,97914.59
2022-12-31T03:23:08.557Z,97914.03
2022-12-31T03:25:40.813Z,97919.44
2022-12-31T03:28:16.766Z,97920.41
2022-12-31T03:30:46.543Z,97929.66
2022-12-31T03:33:13.440Z,97933.06
2022-12-31T03:35:41.519Z,97935.59
2022-12-31T03:38:08.564Z,97939.94
2022-12-31T03:40:39.661Z,97941.34
2022-12-31T03:43:06.504Z,97933.81
2022-12-31T03:45:34.471Z,97937.00
2022-12-31T03:48:02.080Z,97937.59
2022-12-31T03:50:28.714Z,97925.59
2022-12-31T03:52:55.070Z,97917.47
2022-12-31T03:55:21.407Z,97919.63
2022-12-31T03:57:47.772Z,97922.59
2022-12-31T04:00:17.857Z,97915.53
2022-12-31T04:02:44.930Z,97911.66
2022-12-31T04:05:11.756Z,97923.22
2022-12-31T04:07:39.033Z,97923.06
2022-12-31T04:10:07.479Z,97916.78
2022-12-31T04:12:33.905Z,97922.97
2022-12-31T04:15:00.276Z,97917.53
2022-12-31T04:17:26.707Z,97911.97
2022-12-31T04:19:53.096Z,97926.03
2022-12-31T04:22:19.844Z,97919.16
2022-12-31T04:24:46.216Z,97921.56
2022-12-31T04:27:13.495Z,97924.97
2022-12-31T04:29:39.847Z,97930.03
2022-12-31T04:32:07.657Z,97929.25
2022-12-31T04:34:34.490Z,97931.84
2022-12-31T04:37:01.124Z,97921.91
2022-12-31T04:39:27.873Z,97921.19
2022-12-31T04:41:54.340Z,97933.28
2022-12-31T04:44:21.199Z,97926.13
2022-12-31T04:46:47.579Z,97925.75
2022-12-31T04:49:13.990Z,97920.22
2022-12-31T04:51:40.440Z,97912.59
2022-12-31T04:54:06.816Z,97917.47
2022-12-31T04:56:33.164Z,97913.78
2022-12-31T04:58:59.550Z,97914.84
2022-12-31T05:01:26.081Z,97924.56
2022-12-31T05:03:52.546Z,97911.72
2022-12-31T05:06:21.286Z,97910.38
2022-12-31T05:08:48.208Z,97918.84
2022-12-31T05:11:15.460Z,97923.72
2022-12-31T05:13:42.969Z,97923.97
2022-12-31T05:16:09.566Z,97920.16
2022-12-31T05:18:36.735Z,97918.00
2022-12-31T05:21:03.521Z,97904.13
2022-12-31T05:23:29.935Z,97888.94
2022-12-31T05:25:56.945Z,97900.66
2022-12-31T05:28:23.373Z,97893.84
2022-12-31T05:30:50.981Z,97902.09
2022-12-31T05:33:18.481Z,97909.81
2022-12-31T05:35:45.754Z,97909.03
2022-12-31T05:38:12.141Z,97903.75
2022-12-31T05:40:38.487Z,97902.09
2022-12-31T05:43:04.942Z,97915.13
2022-12-31T05:45:31.583Z,97906.75
2022-12-31T05:47:58.250Z,97916.97
2022-12-31T05:50:24.903Z,97915.91
2022-12-31T05:52:51.276Z,97920.25
2022-12-31T05:55:17.759Z,97919.47
2022-12-31T05:57:44.222Z,97920.94
2022-12-31T06:00:11.630Z,97915.91
2022-12-31T06:02:38.050Z,97910.56
2022-12-31T06:05:04.858Z,97917.06
2022-12-31T06:07:31.287Z,97910.94
2022-12-31T06:09:57.653Z,97924.31
2022-12-31T06:12:24.064Z,97918.47
2022-12-31T06:14:50.481Z,97922.00
2022-12-31T06:17:16.829Z,97924.22
2022-12-31T06:19:43.174Z,97931.09
2022-12-31T06:22:09.549Z,97943.72
2022-12-31T06:24:35.909Z,97941.09
2022-12-31T06:27:02.255Z,97942.91
2022-12-31T06:29:28.607Z,97936.41
2022-12-31T06:31:54.977Z,97933.34
2022-12-31T06:34:21.332Z,97930.81
2022-12-31T06:36:47.693Z,97926.78
2022-12-31T06:39:14.041Z,97931.94
2022-12-31T06:41:40.439Z,97926.06
2022-12-31T06:44:06.881Z,97935.88
2022-12-31T06:46:33.319Z,97934.19
2022-12-31T06:48:59.681Z,97928.94
2022-12-31T06:51:26.053Z,97938.50
2022-12-31T06:53:52.494Z,97937.16
2022-12-31T06:56:23.365Z,97940.13
2022-12-31T06:58:52.564Z,97923.69
2022-12-31T07:01:49.405Z,97936.50
2022-12-31T07:04:29.001Z,97936.78
2022-12-31T07:07:19.632Z,97955.09
2022-12-31T07:09:52.860Z,97946.03
2022-12-31T07:12:41.208Z,97946.31
2022-12-31T07:15:10.298Z,97951.66
2022-12-31T07:18:03.153Z,97954.59
2022-12-31T07:20:29.768Z,97953.38
2022-12-31T07:22:56.521Z,97974.47
2022-12-31T07:25:23.535Z,97969.78
2022-12-31T07:28:10.404Z,97965.75
2022-12-31T07:31:11.725Z,97969.84
2022-12-31T07:33:40.819Z,97968.38
2022-12-31T07:36:23.960Z,97971.53
2022-12-31T07:39:01.156Z,97961.06
2022-12-31T07:41:50.083Z,97971.25
2022-12-31T07:44:33.406Z,97969.53
2022-12-31T07:47:01.792Z,97979.16
2022-12-31T07:49:30.007Z,97978.78
2022-12-31T07:51:57.005Z,97978.84
2022-12-31T07:54:23.357Z,97984.72
2022-12-31T07:56:50.562Z,97983.38
2022-12-31T07:59:33.681Z,97983.84
2022-12-31T08:02:11.912Z,97988.59
2022-12-31T08:04:51.033Z,97990.47
2022-12-31T08:07:50.054Z,97995.63
2022-12-31T08:10:35.571Z,98004.69
2022-12-31T08:13:05.183Z,98006.16
2022-12-31T08:15:31.737Z,97995.00
2022-12-31T08:17:58.323Z,97994.75
2022-12-31T08:20:26.702Z,98013.56
2022-12-31T08:23:23.492Z,98020.50
2022-12-31T08:26:19.265Z,98015.13
2022-12-31T08:29:23.098Z,98020.84
2022-12-31T08:32:20.424Z,98021.59
2022-12-31T08:35:02.641Z,98016.75
2022-12-31T08:37:37.563Z,98018.31
2022-12-31T08:40:12.798Z,98012.88
2022-12-31T08:42:59.902Z,98011.25
2022-12-31T08:45:32.117Z,98006.34
2022-12-31T08:48:04.478Z,98018.84
2022-12-31T08:50:31.276Z,98009.25
2022-12-31T08:52:58.053Z,98007.84
2022-12-31T08:55:24.709Z,98014.09
2022-12-31T08:58:19.062Z,98021.09
2022-12-31T09:00:47.643Z,98022.94
2022-12-31T09:03:47.722Z,98009.81
2022-12-31T09:06:27.554Z,98017.13
2022-12-31T09:09:10.413Z,98005.09
2022-12-31T09:12:16.878Z,98004.75
2022-12-31T09:14:45.156Z,97989.00
2022-12-31T09:17:46.317Z,98009.09
2022-12-31T09:20:22.309Z,98017.16
2022-12-31T09:22:49.800Z,98011.66
2022-12-31T09:25:17.194Z,98010.19
2022-12-31T09:27:57.725Z,98002.09
2022-12-31T09:30:27.780Z,98009.75
2022-12-31T09:33:25.006Z,98001.28
2022-12-31T09:35:54.921Z,98009.38
2022-12-31T09:38:29.965Z,98010.50
2022-12-31T09:41:14.727Z,98009.69
2022-12-31T09:44:01.175Z,98010.03
2022-12-31T09:47:03.061Z,98022.13
2022-12-31T09:49:51.051Z,98022.50
2022-12-31T09:52:30.321Z,98031.19
2022-12-31T09:55:23.541Z,98010.34
2022-12-31T09:58:01.817Z,98002.97
2022-12-31T10:00:42.433Z,98013.56
2022-12-31T10:03:39.675Z,98015.75
2022-12-31T10:06:30.645Z,98008.72
2022-12-31T10:09:03.067Z,98005.31
2022-12-31T10:11:43.372Z,98004.94
2022-12-31T10:14:47.745Z,98009.50
2022-12-31T10:17:29.731Z,98006.78
2022-12-31T10:20:02.180Z,98011.56
2022-12-31T10:23:01.139Z,98003.41
2022-12-31T10:25:50.753Z,98005.09
2022-12-31T10:28:39.051Z,97999.41
2022-12-31T10:31:27.426Z,97998.56
2022-12-31T10:34:13.947Z,98016.72
2022-12-31T10:36:53.172Z,98007.75
2022-12-31T10:40:02.506Z,98019.16
2022-12-31T10:42:51.998Z,98023.63
2022-12-31T10:45:27.686Z,98014.72
2022-12-31T10:48:23.483Z,97991.78
2022-12-31T10:51:31.550Z,98000.50
2022-12-31T10:54:29.257Z,98005.78
2022-12-31T10:57:16.892Z,98000.91
2022-12-31T11:00:10.827Z,97987.41
2022-12-31T11:02:40.251Z,97997.69
2022-12-31T11:05:27.823Z,98001.44
2022-12-31T11:08:08.670Z,97982.03
2022-12-31T11:11:02.440Z,97993.13
2022-12-31T11:13:51.797Z,97997.88
2022-12-31T11:16:36.840Z,97989.13
2022-12-31T11:19:33.440Z,98000.84
2022-12-31T11:22:14.787Z,97987.41
2022-12-31T11:25:12.363Z,97996.56
2022-12-31T11:27:49.289Z,97994.00
2022-12-31T11:30:37.224Z,97993.97
2022-12-31T11:33:17.488Z,98005.72
2022-12-31T11:36:20.907Z,98001.34
2022-12-31T11:39:01.039Z,98001.44
2022-12-31T11:41:42.306Z,97996.22
2022-12-31T11:44:32.939Z,98016.38
2022-12-31T11:48:03.934Z,98018.94
2022-12-31T11:50:46.703Z,98014.53
2022-12-31T11:54:01.276Z,98017.13
2022-12-31T11:56:34.524Z,98020.03
2022-12-31T11:59:06.149Z,98019.28
2022-12-31T12:01:50.825Z,98012.97
2022-12-31T12:04:17.275Z,98021.38
2022-12-31T12:06:45.973Z,98016.78
2022-12-31T12:09:22.034Z,98015.22
2022-12-31T12:11:58.981Z,98019.63
2022-12-31T12:14:53.720Z,98012.72
2022-12-31T12:17:33.047Z,98005.72
2022-12-31T12:20:08.087Z,98011.84
2022-12-31T12:22:35.291Z,97999.03
2022-12-31T12:25:05.186Z,98015.47
2022-12-31T12:27:34.576Z,98017.72
2022-12-31T12:30:30.141Z,98023.56
2022-12-31T12:32:59.052Z,98032.59
2022-12-31T12:35:34.026Z,98032.44
2022-12-31T12:38:12.416Z,98025.53
2022-12-31T12:40:39.359Z,98024.72
2022-12-31T12:43:06.916Z,98017.75
2022-12-31T12:45:51.672Z,98032.72
2022-12-31T12:48:40.890Z,98035.97
2022-12-31T12:51:17.752Z,98041.81
2022-12-31T12:53:55.988Z,98026.44
2022-12-31T12:56:51.765Z,98033.31
2022-12-31T12:59:37.020Z,98017.94
2022-12-31T13:02:31.495Z,98039.28
2022-12-31T13:05:42.825Z,98015.13
2022-12-31T13:08:19.839Z,98017.69
2022-12-31T13:10:59.190Z,98021.28
2022-12-31T13:13:47.139Z,98013.28
2022-12-31T13:16:38.909Z,98022.78
2022-12-31T13:19:14.613Z,98018.44
2022-12-31T13:21:48.990Z,98012.16
2022-12-31T13:24:24.741Z,98020.22
2022-12-31T13:26:59.215Z,98031.56
2022-12-31T13:29:31.100Z,98030.47
2022-12-31T13:31:58.900Z,98018.13
2022-12-31T13:34:32.602Z,98040.56
2022-12-31T13:37:04.988Z,98029.16
2022-12-31T13:39:39.760Z,98035.81
2022-12-31T13:42:21.000Z,98043.88
2022-12-31T13:45:03.729Z,98052.34
2022-12-31T13:47:36.410Z,98067.03
2022-12-31T13:50:14.858Z,98063.31
2022-12-31T13:52:44.928Z,98065.25
2022-12-31T13:55:18.406Z,98081.09
2022-12-31T13:57:56.640Z,98083.66
2022-12-31T14:00:26.512Z,98087.00
2022-12-31T14:02:55.972Z,98081.09
2022-12-31T14:05:38.173Z,98077.06
2022-12-31T14:08:06.346Z,98080.31
2022-12-31T14:11:09.489Z,98090.66
2022-12-31T14:13:57.071Z,98079.28
2022-12-31T14:16:35.628Z,98071.94
2022-12-31T14:19:14.704Z,98058.78
2022-12-31T14:22:05.905Z,98062.13
2022-12-31T14:24:44.823Z,98069.09
2022-12-31T14:27:28.331Z,98077.53
2022-12-31T14:30:02.918Z,98092.22
2022-12-31T14:33:02.366Z,98094.13
2022-12-31T14:35:44.275Z,98096.00
2022-12-31T14:38:31.938Z,98098.97
2022-12-31T14:41:06.357Z,98107.81
2022-12-31T14:43:50.384Z,98112.97
2022-12-31T14:46:41.884Z,98114.84
2022-12-31T14:49:40.171Z,98119.28
2022-12-31T14:52:21.484Z,98114.91
2022-12-31T14:55:00.488Z,98111.66
2022-12-31T14:57:54.494Z,98119.38
2022-12-31T15:00:26.883Z,98133.31
2022-12-31T15:03:03.858Z,98135.16
2022-12-31T15:05:51.747Z,98126.72
2022-12-31T15:08:26.666Z,98137.00
2022-12-31T15:11:10.347Z,98138.84
2022-12-31T15:14:00.657Z,98132.59
2022-12-31T15:16:43.725Z,98149.44
2022-12-31T15:19:19.216Z,98154.25
2022-12-31T15:22:12.819Z,98167.06
2022-12-31T15:24:45.511Z,98156.06
2022-12-31T15:27:35.708Z,98150.63
2022-12-31T15:30:03.725Z,98157.28
2022-12-31T15:32:41.480Z,98143.41
2022-12-31T15:35:25.427Z,98131.34
2022-12-31T15:38:28.694Z,98162.06
2022-12-31T15:40:55.099Z,98152.91
2022-12-31T15:43:24.523Z,98151.41
2022-12-31T15:45:56.259Z,98155.09
2022-12-31T15:48:32.369Z,98152.94
2022-12-31T15:51:01.061Z,98141.56
2022-12-31T15:53:41.613Z,98145.56
2022-12-31T15:56:17.264Z,98146.22
2022-12-31T15:58:45.868Z,98150.31
2022-12-31T16:01:25.241Z,98153.22
2022-12-31T16:03:57.652Z,98161.34
2022-12-31T16:06:27.452Z,98155.47
2022-12-31T16:08:55.496Z,98173.47
2022-12-31T16:11:23.189Z,98173.50
2022-12-31T16:13:52.628Z,98172.34
2022-12-31T16:16:26.003Z,98172.38
2022-12-31T16:18:55.754Z,98178.31
2022-12-31T16:21:34.102Z,98189.28
2022-12-31T16:24:05.717Z,98179.38
2022-12-31T16:26:47.662Z,98189.69
2022-12-31T16:29:16.110Z,98199.19
2022-12-31T16:31:44.161Z,98197.00
2022-12-31T16:34:16.150Z,98188.56
2022-12-31T16:36:43.062Z,98187.13
2022-12-31T16:39:23.806Z,98186.06
2022-12-31T16:41:51.689Z,98194.47
2022-12-31T16:44:28.093Z,98200.69
2022-12-31T16:47:00.617Z,98206.53
2022-12-31T16:49:30.320Z,98208.34
2022-12-31T16:52:03.650Z,98210.22
2022-12-31T16:54:38.872Z,98194.09
2022-12-31T16:57:06.411Z,98210.56
2022-12-31T16:59:39.682Z,98216.06
2022-12-31T17:02:34.447Z,98216.78
2022-12-31T17:05:01.300Z,98218.25
2022-12-31T17:07:30.736Z,98220.44
2022-12-31T17:10:09.175Z,98216.06
2022-12-31T17:13:17.562Z,98207.63
2022-12-31T17:15:38.725Z,98214.22
2022-12-31T17:18:06.592Z,98213.88
2022-12-31T17:20:34.185Z,98207.28
2022-12-31T17:23:08.423Z,98223.00
2022-12-31T17:25:37.816Z,98214.19
2022-12-31T17:28:07.815Z,98213.09
2022-12-31T17:30:37.622Z,98219.31
2022-12-31T17:33:13.088Z,98227.38
2022-12-31T17:35:42.274Z,98240.56
2022-12-31T17:38:18.376Z,98240.56
2022-12-31T17:40:51.205Z,98238.72
2022-12-31T17:43:20.259Z,98244.59
2022-12-31T17:45:47.831Z,98254.47
2022-12-31T17:48:16.696Z,98239.44
2022-12-31T17:50:48.624Z,98247.16
2022-12-31T17:53:15.658Z,98245.34
2022-12-31T17:55:45.438Z,98241.66
2022-12-31T17:58:22.455Z,98241.66
2022-12-31T18:00:53.665Z,98261.78
2022-12-31T18:03:20.430Z,98267.59
2022-12-31T18:05:46.809Z,98269.44
2022-12-31T18:08:13.174Z,98259.19
2022-12-31T18:10:41.697Z,98265.75
2022-12-31T18:13:14.591Z,98264.31
2022-12-31T18:15:41.170Z,98261.34
2022-12-31T18:18:24.722Z,98260.63
2022-12-31T18:21:03.447Z,98272.28
2022-12-31T18:23:41.503Z,98274.84
2022-12-31T18:26:13.266Z,98266.75
2022-12-31T18:28:39.740Z,98275.91
2022-12-31T18:31:06.165Z,98273.34
2022-12-31T18:33:32.917Z,98272.66
2022-12-31T18:36:14.506Z,98266.84
2022-12-31T18:38:41.700Z,98263.94
2022-12-31T18:41:16.689Z,98251.50
2022-12-31T18:43:43.147Z,98250.78
2022-12-31T18:46:14.308Z,98248.94
2022-12-31T18:48:44.182Z,98233.94
2022-12-31T18:51:29.306Z,98231.41
2022-12-31T18:53:57.485Z,98239.06
2022-12-31T18:56:25.164Z,98247.81
2022-12-31T18:58:51.955Z,98240.09
2022-12-31T19:01:28.956Z,98238.63
2022-12-31T19:04:00.856Z,98236.78
2022-12-31T19:06:28.330Z,98246.63
2022-12-31T19:08:54.714Z,98247.69
2022-12-31T19:11:21.888Z,98233.44
2022-12-31T19:13:48.725Z,98232.69
2022-12-31T19:16:15.632Z,98234.16
2022-12-31T19:18:42.498Z,98233.06
2022-12-31T19:21:23.647Z,98232.69
2022-12-31T19:23:50.595Z,98227.59
2022-12-31T19:26:20.115Z,98226.81
2022-12-31T19:28:47.221Z,98218.75
2022-12-31T19:31:14.297Z,98224.22
2022-12-31T19:33:41.027Z,98228.59
2022-12-31T19:36:14.627Z,98236.97
2022-12-31T19:38:41.329Z,98227.03
2022-12-31T19:41:14.988Z,98233.97
2022-12-31T19:43:41.434Z,98227.03
2022-12-31T19:46:12.427Z,98227.38
2022-12-31T19:48:38.813Z,98229.13
2022-12-31T19:51:12.113Z,98235.00
2022-12-31T19:53:38.664Z,98231.38
2022-12-31T19:56:05.444Z,98232.09
2022-12-31T19:58:31.824Z,98229.50
2022-12-31T20:01:02.641Z,98231.00
2022-12-31T20:03:31.105Z,98238.94
2022-12-31T20:06:07.457Z,98234.63
2022-12-31T20:08:35.002Z,98240.13
2022-12-31T20:11:08.481Z,98244.16
2022-12-31T20:13:36.448Z,98239.78
2022-12-31T20:16:03.227Z,98237.69
2022-12-31T20:18:29.619Z,98237.66
2022-12-31T20:20:56.212Z,98239.09
2022-12-31T20:23:22.617Z,98242.44
2022-12-31T20:25:59.534Z,98244.31
2022-12-31T20:28:26.011Z,98239.56
2022-12-31T20:30:52.522Z,98242.22
2022-12-31T20:33:19.424Z,98237.03
2022-12-31T20:35:45.949Z,98230.16
2022-12-31T20:38:12.318Z,98239.19
2022-12-31T20:40:43.014Z,98234.78
2022-12-31T20:43:12.981Z,98220.50
2022-12-31T20:45:40.895Z,98230.69
2022-12-31T20:48:07.308Z,98221.22
2022-12-31T20:50:33.646Z,98221.88
2022-12-31T20:53:00.041Z,98223.06
2022-12-31T20:55:27.301Z,98212.13
2022-12-31T20:57:53.670Z,98216.09
2022-12-31T21:00:20.064Z,98222.34
2022-12-31T21:02:53.906Z,98223.41
2022-12-31T21:05:24.278Z,98214.34
2022-12-31T21:07:50.835Z,98208.56
2022-12-31T21:10:17.268Z,98214.03
2022-12-31T21:12:43.690Z,98210.06
2022-12-31T21:15:13.613Z,98204.22
2022-12-31T21:17:39.995Z,98207.56
2022-12-31T21:20:07.072Z,98199.16
2022-12-31T21:22:33.797Z,98201.75
2022-12-31T21:25:03.870Z,98196.28
2022-12-31T21:27:30.748Z,98186.78
2022-12-31T21:32:43.962Z,98189.00
2022-12-31T21:38:03.964Z,98184.94
2022-12-31T21:40:31.261Z,98181.25
2022-12-31T21:42:57.966Z,98184.94
2022-12-31T21:45:24.679Z,98184.53
2022-12-31T21:48:09.707Z,98188.22
2022-12-31T21:50:36.075Z,98186.38
2022-12-31T21:53:02.453Z,98192.25
2022-12-31T21:55:47.384Z,98198.06
2022-12-31T21:58:25.738Z,98197.00
2022-12-31T22:01:12.973Z,98191.88
2022-12-31T22:03:39.644Z,98202.84
2022-12-31T22:06:23.925Z,98215.66
2022-12-31T22:08:59.374Z,98222.25
2022-12-31T22:11:28.130Z,98232.13
2022-12-31T22:13:55.119Z,98236.16
2022-12-31T22:16:22.011Z,98239.09
2022-12-31T22:18:48.954Z,98243.47
2022-12-31T22:21:19.827Z,98233.59
2022-12-31T22:23:55.457Z,98241.31
2022-12-31T22:26:25.053Z,98237.63
2022-12-31T22:28:52.205Z,98235.41
2022-12-31T22:31:21.250Z,98241.63
2022-12-31T22:33:48.209Z,98239.81
2022-12-31T22:36:16.927Z,98244.56
2022-12-31T22:38:43.617Z,98245.66
2022-12-31T22:41:14.538Z,98260.69
2022-12-31T22:43:46.769Z,98258.50
2022-12-31T22:46:15.857Z,98249.69
2022-12-31T22:48:42.738Z,98253.34
2022-12-31T22:51:10.566Z,98248.59
2022-12-31T22:53:39.530Z,98256.63
2022-12-31T22:56:06.813Z,98253.34
2022-12-31T22:58:33.965Z,98255.53
2022-12-31T23:01:03.452Z,98258.47
2022-12-31T23:03:29.881Z,98263.22
2022-12-31T23:05:56.249Z,98269.06
2022-12-31T23:08:23.975Z,98273.06
2022-12-31T23:11:01.541Z,98272.72
2022-12-31T23:13:51.412Z,98286.63
2022-12-31T23:16:37.859Z,98294.72
2022-12-31T23:19:23.483Z,98301.31
2022-12-31T23:22:08.417Z,98292.09
2022-12-31T23:24:35.000Z,98299.81
2022-12-31T23:27:01.658Z,98296.16
2022-12-31T23:29:28.084Z,98283.31
2022-12-31T23:31:54.913Z,98282.97
2022-12-31T23:34:21.535Z,98284.44
2022-12-31T23:36:47.929Z,98283.34
2022-12-31T23:39:14.344Z,98277.44
2022-12-31T23:41:41.082Z,98275.25
2022-12-31T23:44:07.456Z,98265.72
2022-12-31T23:46:33.862Z,98271.22
2022-12-31T23:49:00.322Z,98269.38
2022-12-31T23:51:26.710Z,98269.72
2022-12-31T23:53:53.049Z,98274.13
2022-12-31T23:56:23.566Z,98264.28
2022-12-31T23:58:55.262Z,98275.25
